Tramper — PHAA — position and weather

sailwx.info

Track history (hours):
 
Tides and Currents Weather Stations Pressure Air Temp Water Temp Dewpoint Dewpoint Depression Visibility Wind Speed Wind Dir Waves Ship Positions

Tramper

Last reported at 2016-Feb-14 12:00 UTC. Time now 2016-Feb-14 18:58 UTC.
Position N 49°30' W 001°06'.

Length 101 m; beam 20 m.

Type: Cargo ship. MMSI: 245867000.

Wind from 030 at 12 knots

Waves 0.5 meters (2 feet), 5 second period

Barometer 993.5 mb
Air temperature 9.5 ° C
Visibility: greater than 5.4 NM
Dewpoint 4.1 ° C

Date/timePositionNaut miles runAvg speedWind from/ knotsBaromVisibWave heightAir tempDewpointWater temp
2016-Feb-14 12:00N 49°30' W 001°06'0 0.0 030 / 12993.5 5.4 0.5 9.5 4.1
2016-Feb-13 12:00N 49°30' W 001°06'0 0.0 170 / 10976.4 2.2 0.511.5 8.5
2016-Feb-13 06:00N 49°30' W 001°06'0 0.0 130 / 10985.0 5.4 6.0 1.5
2016-Feb-12 12:00N 49°30' W 001°06'0 0.0 110 / 12989.5 5.4 0.5 6.5 4.4
2016-Feb-12 06:00N 49°30' W 001°06'4 0.6 994.110.8 4.5 2.3
2016-Feb-11 23:27N 49°33' W 001°10'0 0.2
2016-Feb-11 22:33N 49°33' W 001°10'4 0.9
2016-Feb-11 18:00N 49°30' W 001°06'17 4.8 220 / 61004.610.8 6.5 2.1
2016-Feb-11 14:33N 49°44' W 000°54'9412.6
2016-Feb-11 07:06N 50°45' E 000°58'916.1
2016-Feb-11 06:33N 50°51' E 001°10'1515.3
2016-Feb-11 05:34N 51°01' E 001°27'1313.3
2016-Feb-11 04:34N 51°11' E 001°42'1212.2
2016-Feb-11 03:34N 51°20' E 001°54'10 9.8
2016-Feb-11 02:33N 51°23' E 002°09'1111.5
2016-Feb-11 01:33N 51°22' E 002°28'1111.4
2016-Feb-11 00:33N 51°22' E 002°46'1312.7
2016-Feb-10 23:33N 51°24' E 003°06'1313.1
2016-Feb-10 22:33N 51°25' E 003°27'9 9.1
2016-Feb-10 21:34N 51°26' E 003°42'1010.0
2016-Feb-10 20:33N 51°24' E 003°57'1010.0
2016-Feb-10 19:33N 51°22' E 004°13'7 7.2
2016-Feb-10 18:33N 51°17' E 004°20'1 0.8
2016-Feb-10 17:34N 51°16' E 004°21'2 1.4
2016-Feb-10 16:31N 51°15' E 004°22'0 0.0
2016-Feb-10 15:31N 51°15' E 004°22'0 0.0
2016-Feb-10 14:31N 51°15' E 004°22'0 0.0
2016-Feb-10 13:31N 51°15' E 004°22'0 0.0
2016-Feb-10 12:31N 51°15' E 004°22'0 0.0
2016-Feb-10 11:31N 51°15' E 004°22'0 0.0
2016-Feb-10 10:31N 51°15' E 004°22'0 0.0
2016-Feb-10 09:31N 51°15' E 004°22'0 0.0
2016-Feb-10 08:31N 51°15' E 004°22'0 0.0
2016-Feb-10 07:31N 51°15' E 004°22'0 0.0
2016-Feb-10 06:31N 51°15' E 004°22'0 0.0
2016-Feb-10 05:31N 51°15' E 004°22'0 0.0
2016-Feb-10 04:31N 51°15' E 004°22'0 0.0
2016-Feb-10 03:31N 51°15' E 004°22'0 0.0
2016-Feb-10 02:31N 51°15' E 004°22'0 0.0
2016-Feb-10 01:31N 51°15' E 004°22'0 0.0
2016-Feb-10 00:31N 51°15' E 004°22'0 0.0
2016-Feb-09 23:31N 51°15' E 004°22'0 0.0
2016-Feb-09 22:31N 51°15' E 004°22'0 0.0
2016-Feb-09 21:31N 51°15' E 004°22'0 0.0
2016-Feb-09 20:31N 51°15' E 004°22'0 0.0
2016-Feb-09 19:31N 51°15' E 004°22'0 0.0
2016-Feb-09 18:31N 51°15' E 004°22'0 0.0
2016-Feb-09 17:31N 51°15' E 004°22'0 0.0
2016-Feb-09 16:31N 51°15' E 004°22'0 0.0
2016-Feb-09 15:31N 51°15' E 004°22'0 0.0
2016-Feb-09 14:28N 51°15' E 004°22'0 0.0
2016-Feb-09 13:31N 51°15' E 004°22'0 0.0
2016-Feb-09 12:31N 51°15' E 004°22'0 0.0
2016-Feb-09 11:31N 51°15' E 004°22'0 0.0
2016-Feb-09 10:31N 51°15' E 004°22'0 0.0
2016-Feb-09 09:31N 51°15' E 004°22'0 0.0
2016-Feb-09 08:31N 51°15' E 004°22'0 0.0
2016-Feb-09 07:31N 51°15' E 004°22'0 0.0
2016-Feb-09 06:31N 51°15' E 004°22'0 0.0
2016-Feb-09 05:31N 51°15' E 004°22'0 0.0
2016-Feb-09 04:31N 51°15' E 004°22'0 0.0
2016-Feb-09 03:31N 51°15' E 004°22'0 0.0
2016-Feb-09 02:31N 51°15' E 004°22'0 0.0
2016-Feb-09 01:31N 51°15' E 004°22'0 0.0
2016-Feb-09 00:31N 51°15' E 004°22'0 0.0
2016-Feb-08 23:31N 51°15' E 004°22'0 0.0
2016-Feb-08 22:31N 51°15' E 004°22'0 0.0
2016-Feb-08 21:31N 51°15' E 004°22'0 0.0
2016-Feb-08 20:31N 51°15' E 004°22'0 0.0
2016-Feb-08 19:31N 51°15' E 004°22'0 0.0
2016-Feb-08 18:31N 51°15' E 004°22'0 0.0
2016-Feb-08 17:31N 51°15' E 004°22'0 0.0
2016-Feb-08 16:28N 51°15' E 004°22'0 0.0
2016-Feb-08 15:31N 51°15' E 004°22'0 0.0
2016-Feb-08 14:31N 51°15' E 004°22'0 0.0
2016-Feb-08 13:31N 51°15' E 004°22'0 0.0
2016-Feb-08 12:31N 51°15' E 004°22'0 0.0
2016-Feb-08 11:31N 51°15' E 004°22'0 0.0
2016-Feb-08 10:31N 51°15' E 004°22'0 0.0
2016-Feb-08 09:31N 51°15' E 004°22'0 0.0
2016-Feb-08 08:31N 51°15' E 004°22'0 0.0
2016-Feb-08 07:31N 51°15' E 004°22'0 0.0
2016-Feb-08 06:31N 51°15' E 004°22'0 0.0
2016-Feb-08 05:31N 51°15' E 004°22'0 0.0
2016-Feb-08 04:31N 51°15' E 004°22'0 0.0
2016-Feb-08 03:31N 51°15' E 004°22'0 0.0
2016-Feb-08 02:31N 51°15' E 004°22'0 0.0
2016-Feb-08 01:31N 51°15' E 004°22'0 0.0
2016-Feb-08 00:31N 51°15' E 004°22'0 0.0
2016-Feb-07 23:31N 51°15' E 004°22'0 0.0
2016-Feb-07 22:31N 51°15' E 004°22'0 0.0
2016-Feb-07 21:31N 51°15' E 004°22'0 0.0
2016-Feb-07 20:31N 51°15' E 004°22'0 0.0
2016-Feb-07 19:31N 51°15' E 004°22'0 0.0
2016-Feb-07 18:31N 51°15' E 004°22'0 0.0
2016-Feb-07 17:31N 51°15' E 004°22'0 0.0
2016-Feb-07 16:31N 51°15' E 004°22'0 0.0
2016-Feb-07 15:31N 51°15' E 004°22'0 0.0
2016-Feb-07 14:31N 51°15' E 004°22'0 0.0
2016-Feb-07 13:31N 51°15' E 004°22'0 0.0
2016-Feb-07 12:31N 51°15' E 004°22'0 0.0
2016-Feb-07 11:31N 51°15' E 004°22'0 0.0
2016-Feb-07 10:31N 51°15' E 004°22'0 0.0
2016-Feb-07 09:31N 51°15' E 004°22'0 0.0
2016-Feb-07 08:31N 51°15' E 004°22'0 0.0
2016-Feb-07 07:31N 51°15' E 004°22'0 0.0
2016-Feb-07 06:31N 51°15' E 004°22'0 0.0
2016-Feb-07 05:31N 51°15' E 004°22'0 0.0
2016-Feb-07 04:31N 51°15' E 004°22'0 0.0
2016-Feb-07 03:31N 51°15' E 004°22'0 0.0
2016-Feb-07 02:31N 51°15' E 004°22'0 0.0
2016-Feb-07 01:31N 51°15' E 004°22'0 0.0
2016-Feb-07 00:31N 51°15' E 004°22'0 0.0
2016-Feb-06 23:31N 51°15' E 004°22'0 0.0
2016-Feb-06 22:31N 51°15' E 004°22'0 0.0
2016-Feb-06 21:31N 51°15' E 004°22'0 0.0
2016-Feb-06 20:31N 51°15' E 004°22'0 0.0
2016-Feb-06 19:31N 51°15' E 004°22'0 0.0
2016-Feb-06 18:31N 51°15' E 004°22'0 0.0
2016-Feb-06 17:28N 51°15' E 004°22'0 0.0
2016-Feb-06 16:31N 51°15' E 004°22'0 0.0
2016-Feb-06 15:28N 51°15' E 004°22'0 0.0
2016-Feb-06 14:31N 51°15' E 004°22'0 0.0
2016-Feb-06 13:31N 51°15' E 004°22'0 0.0
2016-Feb-06 12:31N 51°15' E 004°22'0 0.0
2016-Feb-06 11:31N 51°15' E 004°22'0 0.0
2016-Feb-06 10:31N 51°15' E 004°22'0 0.0
2016-Feb-06 09:31N 51°15' E 004°22'0 0.0
2016-Feb-06 08:31N 51°15' E 004°22'0 0.0
2016-Feb-06 07:31N 51°15' E 004°22'0 0.0
2016-Feb-06 06:31N 51°15' E 004°22'0 0.0
2016-Feb-06 05:31N 51°15' E 004°22'0 0.0
2016-Feb-06 04:31N 51°15' E 004°22'0 0.0
2016-Feb-06 03:31N 51°15' E 004°22'0 0.0
2016-Feb-06 02:31N 51°15' E 004°22'0 0.0
2016-Feb-06 01:31N 51°15' E 004°22'0 0.0
2016-Feb-06 00:31N 51°15' E 004°22'0 0.0
2016-Feb-05 23:31N 51°15' E 004°22'0 0.0
2016-Feb-05 22:31N 51°15' E 004°22'0 0.0
2016-Feb-05 21:31N 51°15' E 004°22'0 0.0
2016-Feb-05 20:31N 51°15' E 004°22'0 0.0
2016-Feb-05 19:31N 51°15' E 004°22'0 0.0
2016-Feb-05 18:31N 51°15' E 004°22'0 0.0
2016-Feb-05 17:31N 51°15' E 004°22'0 0.0
2016-Feb-05 16:31N 51°15' E 004°22'0 0.0
2016-Feb-05 15:31N 51°15' E 004°22'0 0.0
2016-Feb-05 14:31N 51°15' E 004°22'0 0.0
2016-Feb-05 13:31N 51°15' E 004°22'0 0.0
2016-Feb-05 12:31N 51°15' E 004°22'0 0.0
2016-Feb-05 11:31N 51°15' E 004°22'0 0.0
2016-Feb-05 10:31N 51°15' E 004°22'0 0.0
2016-Feb-05 09:31N 51°15' E 004°22'0 0.0
2016-Feb-05 08:31N 51°15' E 004°22'0 0.0
2016-Feb-05 07:31N 51°15' E 004°22'0 0.0
2016-Feb-05 06:31N 51°15' E 004°22'0 0.0
2016-Feb-05 05:31N 51°15' E 004°22'0 0.0
2016-Feb-05 04:31N 51°15' E 004°22'0 0.0
2016-Feb-05 03:31N 51°15' E 004°22'0 0.0
2016-Feb-05 02:31N 51°15' E 004°22'0 0.0
2016-Feb-05 01:31N 51°15' E 004°22'0 0.0
2016-Feb-05 00:31N 51°15' E 004°22'0 0.0
2016-Feb-04 23:31N 51°15' E 004°22'0 0.0
2016-Feb-04 22:31N 51°15' E 004°22'0 0.0
2016-Feb-04 21:31N 51°15' E 004°22'0 0.3
2016-Feb-04 20:34N 51°15' E 004°22'2 2.0
2016-Feb-04 19:33N 51°17' E 004°20'1 1.3
2016-Feb-04 18:33N 51°18' E 004°19'8 8.3
2016-Feb-04 17:34N 51°22' E 004°08'9 8.7
2016-Feb-04 16:34N 51°21' E 003°54'1211.9
2016-Feb-04 15:34N 51°25' E 003°36'1212.0
2016-Feb-04 14:33N 51°24' E 003°17'1414.0
2016-Feb-04 13:33N 51°25' E 002°54'1211.7
2016-Feb-04 12:33N 51°22' E 002°36'  
Track history (hours):
 
Tides and Currents Weather Stations Pressure Air Temp Water Temp Dewpoint Dewpoint Depression Visibility Wind Speed Wind Dir Waves Ship Positions

Tramper

Last reported at 2016-Feb-14 12:00 UTC. Time now 2016-Feb-14 18:58 UTC.
Position N 49°30' W 001°06'.

Length 101 m; beam 20 m.

Type: Cargo ship. MMSI: 245867000.

Wind from 030 at 12 knots

Waves 0.5 meters (2 feet), 5 second period

Barometer 993.5 mb
Air temperature 9.5 ° C
Visibility: greater than 5.4 NM
Dewpoint 4.1 ° C

Date/timePositionNaut miles runAvg speedWind from/ knotsBaromVisibWave heightAir tempDewpointWater temp
2016-Feb-14 12:00N 49°30' W 001°06'0 0.0 030 / 12993.5 5.4 0.5 9.5 4.1
2016-Feb-13 12:00N 49°30' W 001°06'0 0.0 170 / 10976.4 2.2 0.511.5 8.5
2016-Feb-13 06:00N 49°30' W 001°06'0 0.0 130 / 10985.0 5.4 6.0 1.5
2016-Feb-12 12:00N 49°30' W 001°06'0 0.0 110 / 12989.5 5.4 0.5 6.5 4.4
2016-Feb-12 06:00N 49°30' W 001°06'4 0.6 994.110.8 4.5 2.3
2016-Feb-11 23:27N 49°33' W 001°10'0 0.2
2016-Feb-11 22:33N 49°33' W 001°10'4 0.9
2016-Feb-11 18:00N 49°30' W 001°06'17 4.8 220 / 61004.610.8 6.5 2.1
2016-Feb-11 14:33N 49°44' W 000°54'9412.6
2016-Feb-11 07:06N 50°45' E 000°58'916.1
2016-Feb-11 06:33N 50°51' E 001°10'1515.3
2016-Feb-11 05:34N 51°01' E 001°27'1313.3
2016-Feb-11 04:34N 51°11' E 001°42'1212.2
2016-Feb-11 03:34N 51°20' E 001°54'10 9.8
2016-Feb-11 02:33N 51°23' E 002°09'1111.5
2016-Feb-11 01:33N 51°22' E 002°28'1111.4
2016-Feb-11 00:33N 51°22' E 002°46'1312.7
2016-Feb-10 23:33N 51°24' E 003°06'1313.1
2016-Feb-10 22:33N 51°25' E 003°27'9 9.1
2016-Feb-10 21:34N 51°26' E 003°42'1010.0
2016-Feb-10 20:33N 51°24' E 003°57'1010.0
2016-Feb-10 19:33N 51°22' E 004°13'7 7.2
2016-Feb-10 18:33N 51°17' E 004°20'1 0.8
2016-Feb-10 17:34N 51°16' E 004°21'2 1.4
2016-Feb-10 16:31N 51°15' E 004°22'0 0.0
2016-Feb-10 15:31N 51°15' E 004°22'0 0.0
2016-Feb-10 14:31N 51°15' E 004°22'0 0.0
2016-Feb-10 13:31N 51°15' E 004°22'0 0.0
2016-Feb-10 12:31N 51°15' E 004°22'0 0.0
2016-Feb-10 11:31N 51°15' E 004°22'0 0.0
2016-Feb-10 10:31N 51°15' E 004°22'0 0.0
2016-Feb-10 09:31N 51°15' E 004°22'0 0.0
2016-Feb-10 08:31N 51°15' E 004°22'0 0.0
2016-Feb-10 07:31N 51°15' E 004°22'0 0.0
2016-Feb-10 06:31N 51°15' E 004°22'0 0.0
2016-Feb-10 05:31N 51°15' E 004°22'0 0.0
2016-Feb-10 04:31N 51°15' E 004°22'0 0.0
2016-Feb-10 03:31N 51°15' E 004°22'0 0.0
2016-Feb-10 02:31N 51°15' E 004°22'0 0.0
2016-Feb-10 01:31N 51°15' E 004°22'0 0.0
2016-Feb-10 00:31N 51°15' E 004°22'0 0.0
2016-Feb-09 23:31N 51°15' E 004°22'0 0.0
2016-Feb-09 22:31N 51°15' E 004°22'0 0.0
2016-Feb-09 21:31N 51°15' E 004°22'0 0.0
2016-Feb-09 20:31N 51°15' E 004°22'0 0.0
2016-Feb-09 19:31N 51°15' E 004°22'0 0.0
2016-Feb-09 18:31N 51°15' E 004°22'0 0.0
2016-Feb-09 17:31N 51°15' E 004°22'0 0.0
2016-Feb-09 16:31N 51°15' E 004°22'0 0.0
2016-Feb-09 15:31N 51°15' E 004°22'0 0.0
2016-Feb-09 14:28N 51°15' E 004°22'0 0.0
2016-Feb-09 13:31N 51°15' E 004°22'0 0.0
2016-Feb-09 12:31N 51°15' E 004°22'0 0.0
2016-Feb-09 11:31N 51°15' E 004°22'0 0.0
2016-Feb-09 10:31N 51°15' E 004°22'0 0.0
2016-Feb-09 09:31N 51°15' E 004°22'0 0.0
2016-Feb-09 08:31N 51°15' E 004°22'0 0.0
2016-Feb-09 07:31N 51°15' E 004°22'0 0.0
2016-Feb-09 06:31N 51°15' E 004°22'0 0.0
2016-Feb-09 05:31N 51°15' E 004°22'0 0.0
2016-Feb-09 04:31N 51°15' E 004°22'0 0.0
2016-Feb-09 03:31N 51°15' E 004°22'0 0.0
2016-Feb-09 02:31N 51°15' E 004°22'0 0.0
2016-Feb-09 01:31N 51°15' E 004°22'0 0.0
2016-Feb-09 00:31N 51°15' E 004°22'0 0.0
2016-Feb-08 23:31N 51°15' E 004°22'0 0.0
2016-Feb-08 22:31N 51°15' E 004°22'0 0.0
2016-Feb-08 21:31N 51°15' E 004°22'0 0.0
2016-Feb-08 20:31N 51°15' E 004°22'0 0.0
2016-Feb-08 19:31N 51°15' E 004°22'0 0.0
2016-Feb-08 18:31N 51°15' E 004°22'0 0.0
2016-Feb-08 17:31N 51°15' E 004°22'0 0.0
2016-Feb-08 16:28N 51°15' E 004°22'0 0.0
2016-Feb-08 15:31N 51°15' E 004°22'0 0.0
2016-Feb-08 14:31N 51°15' E 004°22'0 0.0
2016-Feb-08 13:31N 51°15' E 004°22'0 0.0
2016-Feb-08 12:31N 51°15' E 004°22'0 0.0
2016-Feb-08 11:31N 51°15' E 004°22'0 0.0
2016-Feb-08 10:31N 51°15' E 004°22'0 0.0
2016-Feb-08 09:31N 51°15' E 004°22'0 0.0
2016-Feb-08 08:31N 51°15' E 004°22'0 0.0
2016-Feb-08 07:31N 51°15' E 004°22'0 0.0
2016-Feb-08 06:31N 51°15' E 004°22'0 0.0
2016-Feb-08 05:31N 51°15' E 004°22'0 0.0
2016-Feb-08 04:31N 51°15' E 004°22'0 0.0
2016-Feb-08 03:31N 51°15' E 004°22'0 0.0
2016-Feb-08 02:31N 51°15' E 004°22'0 0.0
2016-Feb-08 01:31N 51°15' E 004°22'0 0.0
2016-Feb-08 00:31N 51°15' E 004°22'0 0.0
2016-Feb-07 23:31N 51°15' E 004°22'0 0.0
2016-Feb-07 22:31N 51°15' E 004°22'0 0.0
2016-Feb-07 21:31N 51°15' E 004°22'0 0.0
2016-Feb-07 20:31N 51°15' E 004°22'0 0.0
2016-Feb-07 19:31N 51°15' E 004°22'0 0.0
2016-Feb-07 18:31N 51°15' E 004°22'0 0.0
2016-Feb-07 17:31N 51°15' E 004°22'0 0.0
2016-Feb-07 16:31N 51°15' E 004°22'0 0.0
2016-Feb-07 15:31N 51°15' E 004°22'0 0.0
2016-Feb-07 14:31N 51°15' E 004°22'0 0.0
2016-Feb-07 13:31N 51°15' E 004°22'0 0.0
2016-Feb-07 12:31N 51°15' E 004°22'0 0.0
2016-Feb-07 11:31N 51°15' E 004°22'0 0.0
2016-Feb-07 10:31N 51°15' E 004°22'0 0.0
2016-Feb-07 09:31N 51°15' E 004°22'0 0.0
2016-Feb-07 08:31N 51°15' E 004°22'0 0.0
2016-Feb-07 07:31N 51°15' E 004°22'0 0.0
2016-Feb-07 06:31N 51°15' E 004°22'0 0.0
2016-Feb-07 05:31N 51°15' E 004°22'0 0.0
2016-Feb-07 04:31N 51°15' E 004°22'0 0.0
2016-Feb-07 03:31N 51°15' E 004°22'0 0.0
2016-Feb-07 02:31N 51°15' E 004°22'0 0.0
2016-Feb-07 01:31N 51°15' E 004°22'0 0.0
2016-Feb-07 00:31N 51°15' E 004°22'0 0.0
2016-Feb-06 23:31N 51°15' E 004°22'0 0.0
2016-Feb-06 22:31N 51°15' E 004°22'0 0.0
2016-Feb-06 21:31N 51°15' E 004°22'0 0.0
2016-Feb-06 20:31N 51°15' E 004°22'0 0.0
2016-Feb-06 19:31N 51°15' E 004°22'0 0.0
2016-Feb-06 18:31N 51°15' E 004°22'0 0.0
2016-Feb-06 17:28N 51°15' E 004°22'0 0.0
2016-Feb-06 16:31N 51°15' E 004°22'0 0.0
2016-Feb-06 15:28N 51°15' E 004°22'0 0.0
2016-Feb-06 14:31N 51°15' E 004°22'0 0.0
2016-Feb-06 13:31N 51°15' E 004°22'0 0.0
2016-Feb-06 12:31N 51°15' E 004°22'0 0.0
2016-Feb-06 11:31N 51°15' E 004°22'0 0.0
2016-Feb-06 10:31N 51°15' E 004°22'0 0.0
2016-Feb-06 09:31N 51°15' E 004°22'0 0.0
2016-Feb-06 08:31N 51°15' E 004°22'0 0.0
2016-Feb-06 07:31N 51°15' E 004°22'0 0.0
2016-Feb-06 06:31N 51°15' E 004°22'0 0.0
2016-Feb-06 05:31N 51°15' E 004°22'0 0.0
2016-Feb-06 04:31N 51°15' E 004°22'0 0.0
2016-Feb-06 03:31N 51°15' E 004°22'0 0.0
2016-Feb-06 02:31N 51°15' E 004°22'0 0.0
2016-Feb-06 01:31N 51°15' E 004°22'0 0.0
2016-Feb-06 00:31N 51°15' E 004°22'0 0.0
2016-Feb-05 23:31N 51°15' E 004°22'0 0.0
2016-Feb-05 22:31N 51°15' E 004°22'0 0.0
2016-Feb-05 21:31N 51°15' E 004°22'0 0.0
2016-Feb-05 20:31N 51°15' E 004°22'0 0.0
2016-Feb-05 19:31N 51°15' E 004°22'0 0.0
2016-Feb-05 18:31N 51°15' E 004°22'0 0.0
2016-Feb-05 17:31N 51°15' E 004°22'0 0.0
2016-Feb-05 16:31N 51°15' E 004°22'0 0.0
2016-Feb-05 15:31N 51°15' E 004°22'0 0.0
2016-Feb-05 14:31N 51°15' E 004°22'0 0.0
2016-Feb-05 13:31N 51°15' E 004°22'0 0.0
2016-Feb-05 12:31N 51°15' E 004°22'0 0.0
2016-Feb-05 11:31N 51°15' E 004°22'0 0.0
2016-Feb-05 10:31N 51°15' E 004°22'0 0.0
2016-Feb-05 09:31N 51°15' E 004°22'0 0.0
2016-Feb-05 08:31N 51°15' E 004°22'0 0.0
2016-Feb-05 07:31N 51°15' E 004°22'0 0.0
2016-Feb-05 06:31N 51°15' E 004°22'0 0.0
2016-Feb-05 05:31N 51°15' E 004°22'0 0.0
2016-Feb-05 04:31N 51°15' E 004°22'0 0.0
2016-Feb-05 03:31N 51°15' E 004°22'0 0.0
2016-Feb-05 02:31N 51°15' E 004°22'0 0.0
2016-Feb-05 01:31N 51°15' E 004°22'0 0.0
2016-Feb-05 00:31N 51°15' E 004°22'0 0.0
2016-Feb-04 23:31N 51°15' E 004°22'0 0.0
2016-Feb-04 22:31N 51°15' E 004°22'0 0.0
2016-Feb-04 21:31N 51°15' E 004°22'0 0.3
2016-Feb-04 20:34N 51°15' E 004°22'2 2.0
2016-Feb-04 19:33N 51°17' E 004°20'1 1.3
2016-Feb-04 18:33N 51°18' E 004°19'8 8.3
2016-Feb-04 17:34N 51°22' E 004°08'9 8.7
2016-Feb-04 16:34N 51°21' E 003°54'1211.9
2016-Feb-04 15:34N 51°25' E 003°36'1212.0
2016-Feb-04 14:33N 51°24' E 003°17'1414.0
2016-Feb-04 13:33N 51°25' E 002°54'1211.7
2016-Feb-04 12:33N 51°22' E 002°36'  

Dump ship's entire track history